Time;durP1;ratioP1;P1;durP2;ratioP2;P2;SDS_P1;SDS_P2;PMS_P1;PMS_P2;Temp;Humidity;BMP_temperature;BMP_pressure;BME280_temperature;BME280_humidity;BME280_pressure;Samples;Min_cycle;Max_cycle;Signal;HPM_P1;HPM_P2
2022/04/02 00:00:09;;;;;;;2.97;2.77;;;-0.90;99.90;;;;;;6160147;28;20306;-80
2022/04/02 00:03:21;;;;;;;2.60;2.50;;;-0.90;99.90;;;;;;6162328;28;20300;-81
2022/04/02 00:06:27;;;;;;;2.70;2.60;;;-0.90;99.90;;;;;;6193021;28;20575;-81
2022/04/02 00:09:33;;;;;;;2.90;2.70;;;-0.90;99.90;;;;;;6162215;28;20536;-81
2022/04/02 00:12:40;;;;;;;2.80;2.60;;;-0.90;99.90;;;;;;6160637;28;20298;-81
2022/04/02 00:15:46;;;;;;;3.07;2.87;;;-0.90;99.90;;;;;;6181961;28;20309;-81
2022/04/02 00:18:52;;;;;;;2.53;2.43;;;-1.00;99.90;;;;;;6186232;28;20475;-81
2022/04/02 00:21:57;;;;;;;2.87;2.67;;;-1.00;99.90;;;;;;6174793;28;20492;-81
2022/04/02 00:25:03;;;;;;;2.60;2.40;;;-1.00;99.90;;;;;;6160730;28;20376;-81
2022/04/02 00:28:14;;;;;;;2.33;2.33;;;-1.00;99.90;;;;;;6164652;28;20298;-81
2022/04/02 00:31:22;;;;;;;2.63;2.53;;;-1.00;99.90;;;;;;6174077;28;20300;-81
2022/04/02 00:34:27;;;;;;;4.63;2.83;;;-1.00;99.90;;;;;;6181408;28;20345;-81
2022/04/02 00:37:33;;;;;;;3.37;2.43;;;-1.00;99.90;;;;;;6166890;28;20297;-81
2022/04/02 00:40:42;;;;;;;2.37;2.27;;;-1.00;99.90;;;;;;6166508;28;20317;-81
2022/04/02 00:44:00;;;;;;;4.00;2.77;;;-1.00;99.90;;;;;;6166340;28;20299;-81
2022/04/02 00:47:06;;;;;;;3.43;2.57;;;-1.00;99.90;;;;;;6181529;28;20303;-81
2022/04/02 00:50:12;;;;;;;2.60;2.40;;;-1.00;99.90;;;;;;6166118;28;20300;-80
2022/04/02 00:53:17;;;;;;;6.57;2.87;;;-1.00;99.90;;;;;;6166153;28;20473;-81
2022/04/02 00:56:23;;;;;;;2.90;2.70;;;-1.10;99.90;;;;;;6166863;28;20306;-81
2022/04/02 00:59:30;;;;;;;7.40;2.80;;;-1.00;99.90;;;;;;6164794;28;20297;-81
2022/04/02 01:02:36;;;;;;;2.80;2.60;;;-1.00;99.90;;;;;;6181122;28;20293;-81
2022/04/02 01:05:42;;;;;;;2.60;2.40;;;-1.10;99.90;;;;;;6148685;29;20300;-81
2022/04/02 01:08:48;;;;;;;3.33;2.83;;;-1.00;99.90;;;;;;6180791;28;20302;-81
2022/04/02 01:11:56;;;;;;;5.87;3.47;;;-1.10;99.90;;;;;;6164876;28;20296;-81
2022/04/02 01:15:04;;;;;;;5.20;3.67;;;-1.10;99.90;;;;;;6147854;29;20297;-81
2022/04/02 01:18:20;;;;;;;4.70;3.17;;;-1.20;99.90;;;;;;6164692;28;20477;-81
2022/04/02 01:21:30;;;;;;;3.67;3.40;;;-1.20;99.90;;;;;;6164825;28;20301;-81
2022/04/02 01:24:43;;;;;;;4.87;4.07;;;-1.20;99.90;;;;;;6179879;28;20448;-81
2022/04/02 01:27:49;;;;;;;4.07;3.27;;;-1.30;99.90;;;;;;6164251;28;20291;-82
2022/04/02 01:30:55;;;;;;;5.67;2.43;;;-1.30;99.90;;;;;;6179991;28;20299;-81
2022/04/02 01:34:01;;;;;;;3.13;2.90;;;-1.30;99.90;;;;;;6179772;28;20304;-81
2022/04/02 01:37:15;;;;;;;5.70;3.10;;;-1.30;99.90;;;;;;6180444;28;20292;-81
2022/04/02 01:40:26;;;;;;;4.20;3.20;;;-1.30;99.90;;;;;;6178702;28;20295;-82
2022/04/02 01:43:32;;;;;;;3.30;3.10;;;-1.40;99.90;;;;;;6195816;28;20296;-81
2022/04/02 01:46:37;;;;;;;3.20;2.93;;;-1.30;99.90;;;;;;6179837;28;20291;-81
2022/04/02 01:49:44;;;;;;;10.83;3.30;;;-1.30;99.90;;;;;;6179699;28;20299;-81
2022/04/02 01:52:50;;;;;;;4.57;3.20;;;-1.30;99.90;;;;;;6180082;28;20300;-81
2022/04/02 01:55:59;;;;;;;5.33;2.90;;;-1.30;99.90;;;;;;6179401;28;20392;-81
2022/04/02 01:59:11;;;;;;;3.80;2.20;;;-1.30;99.90;;;;;;6179507;28;20459;-81
2022/04/02 02:02:20;;;;;;;2.93;2.67;;;-1.30;99.90;;;;;;6179842;28;20398;-81
2022/04/02 02:05:26;;;;;;;2.33;2.33;;;-1.30;99.90;;;;;;6164704;28;20632;-81
2022/04/02 02:08:32;;;;;;;2.43;2.33;;;-1.40;99.90;;;;;;6162899;28;20315;-81
2022/04/02 02:11:43;;;;;;;3.70;2.50;;;-1.40;99.90;;;;;;6164046;28;20301;-81
2022/04/02 02:14:58;;;;;;;4.40;2.80;;;-1.40;99.90;;;;;;6191727;28;20311;-82
2022/04/02 02:18:04;;;;;;;2.63;2.50;;;-1.40;99.90;;;;;;6178922;28;20308;-81
2022/04/02 02:21:13;;;;;;;2.63;2.30;;;-1.40;99.90;;;;;;6186562;28;20291;-80
2022/04/02 02:24:20;;;;;;;3.33;2.50;;;-1.40;99.90;;;;;;6140704;28;20305;-81
2022/04/02 02:27:27;;;;;;;2.83;2.70;;;-1.40;99.90;;;;;;6155660;28;20483;-82
2022/04/02 02:30:33;;;;;;;2.40;2.30;;;-1.40;99.90;;;;;;6147229;29;20500;-81
2022/04/02 02:37:09;;;;;;;2.50;2.17;;;-1.50;99.90;;;;;;6147463;29;20300;-81
2022/04/02 02:40:22;;;;;;;2.60;2.50;;;-1.50;99.90;;;;;;6146318;28;20303;-81
2022/04/02 02:43:30;;;;;;;3.63;2.47;;;-1.50;99.90;;;;;;6162457;28;20328;-81
2022/04/02 02:46:45;;;;;;;2.80;2.70;;;-1.50;99.90;;;;;;6147480;29;20307;-81
2022/04/02 02:50:00;;;;;;;2.57;2.37;;;-1.50;99.90;;;;;;6177446;28;20454;-81
2022/04/02 02:53:16;;;;;;;2.57;2.47;;;-1.60;99.90;;;;;;6162364;28;20295;-81
2022/04/02 02:56:24;;;;;;;3.40;2.60;;;-1.60;99.90;;;;;;6147087;29;20291;-81
2022/04/02 02:59:33;;;;;;;2.50;2.40;;;-1.60;99.90;;;;;;6163598;28;20475;-81
2022/04/02 03:02:39;;;;;;;2.30;2.20;;;-1.60;99.90;;;;;;6144243;28;20314;-81
2022/04/02 03:05:47;;;;;;;2.93;2.50;;;-1.60;99.90;;;;;;6148946;28;20304;-81
2022/04/02 03:08:54;;;;;;;2.70;2.57;;;-1.60;99.90;;;;;;6146018;28;20296;-81
2022/04/02 03:12:00;;;;;;;2.40;2.30;;;-1.60;99.90;;;;;;6132436;28;20295;-80
2022/04/02 03:15:11;;;;;;;2.50;2.27;;;-1.60;99.90;;;;;;6160606;28;20632;-80
2022/04/02 03:18:18;;;;;;;2.40;2.20;;;-1.60;99.90;;;;;;6138837;28;20303;-81
2022/04/02 03:21:25;;;;;;;2.50;2.40;;;-1.60;99.90;;;;;;6130534;29;20297;-80
2022/04/02 03:24:32;;;;;;;2.37;2.20;;;-1.60;99.90;;;;;;6130184;29;20336;-80
2022/04/02 03:27:43;;;;;;;2.63;2.50;;;-1.60;99.90;;;;;;6115638;29;20311;-80
2022/04/02 03:30:52;;;;;;;2.30;2.30;;;-1.60;99.90;;;;;;6114419;29;20577;-80
2022/04/02 03:33:58;;;;;;;2.50;2.30;;;-1.70;99.90;;;;;;6121885;29;20309;-80
2022/04/02 03:37:05;;;;;;;2.20;2.20;;;-1.70;99.90;;;;;;6126739;28;20303;-80
2022/04/02 03:40:20;;;;;;;4.00;2.47;;;-1.70;99.90;;;;;;6162627;28;20299;-80
2022/04/02 03:43:26;;;;;;;2.63;2.43;;;-1.70;99.90;;;;;;6177526;28;20291;-80
2022/04/02 03:50:03;;;;;;;2.70;2.60;;;-1.70;99.90;;;;;;6162339;28;20586;-81
2022/04/02 03:53:18;;;;;;;2.67;2.47;;;-1.70;99.90;;;;;;6176807;28;20306;-81
2022/04/02 03:56:34;;;;;;;2.33;2.23;;;-1.70;99.90;;;;;;6193298;28;20310;-81
2022/04/02 03:59:43;;;;;;;2.43;2.27;;;-1.70;99.90;;;;;;6176937;28;20299;-81
2022/04/02 04:02:54;;;;;;;2.70;2.60;;;-1.70;99.90;;;;;;6192018;28;20295;-81
2022/04/02 04:06:06;;;;;;;2.60;2.50;;;-1.70;99.90;;;;;;6193377;28;20290;-80
2022/04/02 04:09:12;;;;;;;2.20;2.20;;;-1.70;99.90;;;;;;6176800;28;20305;-80
2022/04/02 04:12:21;;;;;;;2.30;2.30;;;-1.70;99.90;;;;;;6162053;28;20391;-81
2022/04/02 04:15:31;;;;;;;2.70;2.50;;;-1.70;99.90;;;;;;6160601;28;20587;-81
2022/04/02 04:18:41;;;;;;;2.53;2.40;;;-1.70;99.90;;;;;;6160742;28;20298;-81
2022/04/02 04:21:47;;;;;;;3.57;2.67;;;-1.70;99.90;;;;;;6161598;28;20528;-81
2022/04/02 04:24:53;;;;;;;2.90;2.60;;;-1.70;99.90;;;;;;6120278;29;20321;-81
2022/04/02 04:28:01;;;;;;;3.03;2.70;;;-1.80;99.90;;;;;;6145221;28;20303;-81
2022/04/02 04:31:09;;;;;;;2.80;2.60;;;-1.80;99.90;;;;;;6160809;28;20295;-81
2022/04/02 04:34:17;;;;;;;2.60;2.50;;;-1.70;99.90;;;;;;6161928;28;20294;-81
2022/04/02 04:37:22;;;;;;;3.13;2.93;;;-1.70;99.90;;;;;;6161888;28;20291;-81
2022/04/02 04:40:29;;;;;;;2.53;2.53;;;-1.80;99.90;;;;;;6160935;28;20297;-81
2022/04/02 04:43:37;;;;;;;3.03;2.83;;;-1.80;99.90;;;;;;6144729;29;20295;-80
2022/04/02 04:46:43;;;;;;;2.70;2.60;;;-1.80;99.90;;;;;;6144903;29;20291;-81
2022/04/02 04:49:54;;;;;;;4.77;2.33;;;-1.80;99.90;;;;;;6160275;28;20292;-81
2022/04/02 04:53:00;;;;;;;2.90;2.70;;;-1.80;99.90;;;;;;6176214;28;20300;-81
2022/04/02 04:56:07;;;;;;;2.90;2.80;;;-1.80;99.90;;;;;;6145504;28;20349;-80
2022/04/02 04:59:14;;;;;;;5.13;3.00;;;-1.80;99.90;;;;;;6176233;28;20297;-81
2022/04/02 05:02:20;;;;;;;4.03;3.00;;;-1.90;99.90;;;;;;6143881;28;20291;-81
2022/04/02 05:05:29;;;;;;;2.73;2.63;;;-1.90;99.90;;;;;;6145047;29;20452;-81
2022/04/02 05:08:42;;;;;;;3.20;2.90;;;-1.90;99.90;;;;;;6176098;28;20299;-81
2022/04/02 05:11:49;;;;;;;2.50;2.50;;;-1.80;99.90;;;;;;6168276;28;20296;-81
2022/04/02 05:14:55;;;;;;;3.53;3.13;;;-1.90;99.90;;;;;;6151235;28;20294;-81
2022/04/02 05:18:03;;;;;;;3.70;3.50;;;-1.90;99.90;;;;;;6196859;28;20710;-81
2022/04/02 05:21:12;;;;;;;3.53;3.23;;;-1.90;99.90;;;;;;6196875;28;20299;-80
2022/04/02 05:24:19;;;;;;;3.30;3.00;;;-1.80;99.90;;;;;;6164744;28;20296;-81
2022/04/02 05:27:30;;;;;;;3.23;3.10;;;-1.80;99.90;;;;;;6180575;28;20431;-81
2022/04/02 05:30:37;;;;;;;3.87;3.23;;;-1.70;99.90;;;;;;6164469;28;20543;-81
2022/04/02 05:33:43;;;;;;;3.37;3.03;;;-1.70;99.90;;;;;;6180257;28;20296;-81
2022/04/02 05:36:50;;;;;;;3.00;2.90;;;-1.70;99.90;;;;;;6165792;28;20297;-81
2022/04/02 05:39:57;;;;;;;3.03;2.93;;;-1.70;99.90;;;;;;6171856;28;20315;-81
2022/04/02 05:43:02;;;;;;;3.50;3.40;;;-1.70;99.90;;;;;;6165258;28;20303;-80
2022/04/02 05:46:08;;;;;;;3.97;3.67;;;-1.70;99.90;;;;;;6196223;28;20597;-81
2022/04/02 05:49:13;;;;;;;3.83;3.30;;;-1.60;99.90;;;;;;6164975;28;20310;-81
2022/04/02 05:52:21;;;;;;;3.50;3.30;;;-1.60;99.90;;;;;;6147838;28;20298;-81
2022/04/02 05:55:28;;;;;;;3.90;3.60;;;-1.60;99.90;;;;;;6172104;28;20304;-81
2022/04/02 05:58:34;;;;;;;3.30;3.10;;;-1.60;99.90;;;;;;6155944;28;20312;-81
2022/04/02 06:01:40;;;;;;;3.63;3.40;;;-1.50;99.90;;;;;;6141458;28;20292;-80
2022/04/02 06:04:45;;;;;;;3.83;3.60;;;-1.50;99.90;;;;;;6141086;28;20293;-81
2022/04/02 06:07:52;;;;;;;4.63;3.97;;;-1.50;99.90;;;;;;6162985;28;20299;-80
2022/04/02 06:10:57;;;;;;;3.40;3.20;;;-1.50;99.90;;;;;;6164866;28;20307;-81
2022/04/02 06:14:03;;;;;;;4.23;3.83;;;-1.40;99.90;;;;;;6159996;28;20327;-81
2022/04/02 06:17:09;;;;;;;4.83;3.90;;;-1.40;99.90;;;;;;6140320;29;20292;-81
2022/04/02 06:20:15;;;;;;;5.70;3.67;;;-1.30;99.90;;;;;;6140406;29;20602;-81
2022/04/02 06:23:25;;;;;;;4.50;3.87;;;-1.30;99.90;;;;;;6140336;29;20300;-80
2022/04/02 06:26:30;;;;;;;4.93;4.00;;;-1.30;99.90;;;;;;6124566;29;20292;-81
2022/04/02 06:29:36;;;;;;;4.43;3.60;;;-1.30;99.90;;;;;;6140494;29;20298;-81
2022/04/02 06:32:42;;;;;;;7.10;3.67;;;-1.20;99.90;;;;;;6139266;29;20304;-81
2022/04/02 06:35:48;;;;;;;4.33;3.70;;;-1.10;99.90;;;;;;6139581;29;20377;-81
2022/04/02 06:38:56;;;;;;;3.93;3.63;;;-1.00;99.90;;;;;;6154926;28;20304;-81
2022/04/02 06:42:02;;;;;;;3.87;3.47;;;-0.90;99.90;;;;;;6139930;29;20308;-81
2022/04/02 06:45:16;;;;;;;5.63;3.80;;;-0.90;99.90;;;;;;6123140;29;20298;-80
2022/04/02 06:48:21;;;;;;;5.30;3.70;;;-0.80;99.90;;;;;;6139787;29;20377;-81
2022/04/02 06:51:27;;;;;;;3.50;3.10;;;-0.70;99.90;;;;;;6140440;29;20296;-81
2022/04/02 06:54:34;;;;;;;5.30;2.80;;;-0.60;99.90;;;;;;6122850;29;20580;-81
2022/04/02 06:57:44;;;;;;;2.93;2.73;;;-0.50;99.90;;;;;;6139739;29;20301;-81
2022/04/02 07:00:49;;;;;;;2.57;2.40;;;-0.30;99.90;;;;;;6154684;28;20300;-81
2022/04/02 07:03:55;;;;;;;1.70;1.70;;;-0.20;99.90;;;;;;6139474;29;20609;-80
2022/04/02 07:07:00;;;;;;;1.60;1.57;;;-0.10;99.90;;;;;;6139917;29;20301;-81
2022/04/02 07:10:09;;;;;;;1.93;1.83;;;0.00;99.90;;;;;;6121851;29;20376;-81
2022/04/02 07:13:16;;;;;;;1.70;1.70;;;0.10;99.90;;;;;;6139641;28;20302;-80
2022/04/02 07:16:22;;;;;;;1.77;1.67;;;0.10;99.90;;;;;;6162228;28;20297;-80
2022/04/02 07:19:29;;;;;;;1.87;1.73;;;0.10;99.40;;;;;;6182211;28;20299;-81
2022/04/02 07:22:36;;;;;;;2.23;1.90;;;0.10;98.70;;;;;;6201682;28;20295;-80
2022/04/02 07:25:43;;;;;;;2.37;1.80;;;0.20;98.40;;;;;;6162152;28;20297;-81
2022/04/02 07:28:49;;;;;;;1.80;1.80;;;0.20;98.40;;;;;;6186607;28;20300;-81
2022/04/02 07:31:55;;;;;;;1.90;1.60;;;0.30;98.30;;;;;;6187400;28;20296;-80
2022/04/02 07:35:02;;;;;;;2.00;1.90;;;0.30;98.40;;;;;;6161076;28;20302;-80
2022/04/02 07:38:22;;;;;;;2.33;2.00;;;0.30;97.40;;;;;;6160583;28;20291;-81
2022/04/02 07:41:46;;;;;;;2.30;2.10;;;0.40;97.30;;;;;;6193855;28;20313;-81
2022/04/02 07:45:03;;;;;;;2.23;1.60;;;0.50;96.60;;;;;;6200541;28;20309;-81
2022/04/02 07:48:20;;;;;;;1.97;1.97;;;0.50;95.90;;;;;;6161882;28;20300;-81
2022/04/02 07:51:28;;;;;;;2.00;1.80;;;0.50;95.80;;;;;;6162889;28;20300;-81
2022/04/02 07:54:39;;;;;;;1.60;1.60;;;0.50;95.20;;;;;;6162171;28;20587;-82
2022/04/02 07:57:49;;;;;;;1.77;1.63;;;0.50;94.80;;;;;;6162322;28;20452;-82
2022/04/02 08:00:57;;;;;;;1.80;1.70;;;0.50;95.20;;;;;;6162535;28;20302;-80
2022/04/02 08:04:06;;;;;;;5.10;2.20;;;0.60;93.90;;;;;;6176435;28;20296;-81
2022/04/02 08:07:12;;;;;;;2.57;2.40;;;0.70;94.60;;;;;;6161817;28;20299;-81
2022/04/02 08:10:22;;;;;;;3.47;2.10;;;0.70;96.30;;;;;;6156032;28;20290;-81
2022/04/02 08:13:33;;;;;;;2.90;2.63;;;0.80;96.90;;;;;;6149239;28;20293;-81
2022/04/02 08:16:43;;;;;;;3.10;2.37;;;0.80;98.10;;;;;;6138872;29;20311;-80
2022/04/02 08:19:51;;;;;;;3.23;2.30;;;0.80;98.60;;;;;;6138218;29;20594;-86
2022/04/02 08:22:58;;;;;;;2.37;2.20;;;0.80;98.60;;;;;;6152847;29;20310;-81
2022/04/02 08:26:16;;;;;;;7.37;2.50;;;0.90;98.50;;;;;;6137212;29;20294;-82
2022/04/02 08:29:36;;;;;;;6.80;2.80;;;0.90;98.40;;;;;;6125983;29;20307;-81
2022/04/02 08:33:33;;;;;;;3.07;2.87;;;0.90;98.50;;;;;;6138102;29;20306;-77
2022/04/02 08:36:45;;;;;;;6.90;2.43;;;1.00;98.40;;;;;;6128702;29;20456;-78
2022/04/02 08:40:02;;;;;;;4.83;2.20;;;1.00;97.60;;;;;;6138023;28;20442;-79
2022/04/02 08:43:48;;;;;;;3.93;2.20;;;1.00;97.50;;;;;;6138227;28;20303;-80
2022/04/02 08:47:12;;;;;;;2.50;2.00;;;1.10;97.10;;;;;;6117268;29;20299;-81
2022/04/02 08:50:19;;;;;;;2.30;2.10;;;1.10;96.00;;;;;;6141716;28;20469;-78
2022/04/02 08:53:51;;;;;;;2.03;1.87;;;1.20;95.30;;;;;;6142424;28;20302;-79
2022/04/02 08:57:01;;;;;;;1.53;1.53;;;1.30;94.60;;;;;;6142761;28;20302;-79
2022/04/02 09:00:10;;;;;;;3.17;1.87;;;1.30;93.70;;;;;;6142627;29;20377;-80
2022/04/02 09:04:24;;;;;;;6.47;1.70;;;1.30;93.00;;;;;;6142027;28;20304;-84
2022/04/02 09:08:09;;;;;;;1.80;1.80;;;1.30;94.00;;;;;;6115293;29;20287;-82
2022/04/02 09:11:26;;;;;;;1.90;1.70;;;1.40;93.30;;;;;;6142569;28;20298;-80
2022/04/02 09:15:02;;;;;;;1.80;1.70;;;1.40;93.70;;;;;;6147313;28;20309;-80
2022/04/02 09:18:20;;;;;;;1.80;1.67;;;1.40;93.80;;;;;;6165668;28;20606;-80
2022/04/02 09:21:32;;;;;;;2.10;1.80;;;1.40;94.50;;;;;;6166200;28;20294;-79
2022/04/02 09:25:23;;;;;;;2.73;2.13;;;1.50;94.10;;;;;;6165408;28;20571;-80
2022/04/02 09:28:43;;;;;;;1.60;1.60;;;1.50;94.10;;;;;;6196250;28;20319;-79
2022/04/02 09:32:47;;;;;;;2.37;1.97;;;1.50;94.60;;;;;;6196416;28;20295;-79
2022/04/02 09:36:19;;;;;;;7.70;2.17;;;1.60;94.00;;;;;;6165497;28;20297;-80
2022/04/02 09:39:41;;;;;;;3.00;2.00;;;1.60;94.30;;;;;;6165325;28;20293;-79
2022/04/02 09:42:48;;;;;;;2.20;2.10;;;1.70;94.90;;;;;;6180519;28;20307;-79
2022/04/02 09:46:34;;;;;;;1.63;1.63;;;1.60;94.80;;;;;;6180601;28;20472;-80
2022/04/02 09:49:51;;;;;;;1.87;1.70;;;1.70;94.70;;;;;;6189140;28;20298;-80
2022/04/02 09:52:59;;;;;;;1.80;1.80;;;1.70;94.00;;;;;;6188703;28;20472;-80
2022/04/02 09:56:19;;;;;;;6.80;2.07;;;1.70;94.30;;;;;;6189139;28;20293;-80
2022/04/02 09:59:34;;;;;;;2.10;2.00;;;1.80;94.20;;;;;;6188429;28;20296;-80
2022/04/02 10:03:00;;;;;;;1.83;1.60;;;1.90;94.30;;;;;;6188516;28;20300;-80
2022/04/02 10:06:23;;;;;;;4.13;1.93;;;1.90;94.60;;;;;;6187823;28;20291;-80
2022/04/02 10:09:32;;;;;;;2.97;1.50;;;2.10;93.70;;;;;;6188307;28;20351;-81
2022/04/02 10:12:42;;;;;;;7.00;1.83;;;2.10;93.00;;;;;;6140559;29;20293;-81
2022/04/02 10:15:49;;;;;;;5.20;2.13;;;2.20;92.30;;;;;;6115108;29;20295;-81
2022/04/02 10:18:57;;;;;;;1.67;1.57;;;2.30;90.70;;;;;;6133439;29;20295;-80
2022/04/02 10:22:05;;;;;;;1.40;1.40;;;2.30;90.30;;;;;;6141111;29;20297;-89
2022/04/02 10:25:13;;;;;;;2.53;1.50;;;2.40;90.20;;;;;;6136073;29;20299;-86
2022/04/02 10:28:22;;;;;;;2.00;1.60;;;2.50;87.60;;;;;;6138646;29;20303;-88
2022/04/02 10:31:40;;;;;;;2.23;1.33;;;2.70;88.40;;;;;;6125104;29;20295;-87
2022/04/02 10:34:51;;;;;;;1.20;1.20;;;2.70;82.70;;;;;;6140347;29;20303;-89
2022/04/02 10:38:08;;;;;;;1.20;1.20;;;2.80;83.60;;;;;;6108222;29;20305;-84
2022/04/02 10:41:17;;;;;;;1.20;1.20;;;3.00;81.80;;;;;;6140599;29;20316;-83
2022/04/02 10:44:34;;;;;;;2.00;1.20;;;3.00;75.30;;;;;;6139229;29;20310;-85
2022/04/02 10:47:47;;;;;;;2.13;1.10;;;3.20;76.80;;;;;;6141879;29;20606;-87
2022/04/02 10:50:54;;;;;;;3.33;1.47;;;3.30;72.40;;;;;;6143178;29;20294;-92
2022/04/02 10:54:07;;;;;;;3.87;1.20;;;3.40;70.70;;;;;;6123900;29;20306;-80
2022/04/02 10:57:13;;;;;;;2.07;1.30;;;3.50;58.90;;;;;;6137178;29;20309;-81
2022/04/02 11:00:20;;;;;;;1.47;1.37;;;3.60;58.30;;;;;;6123159;29;20310;-81
2022/04/02 11:03:35;;;;;;;1.00;1.00;;;3.70;59.70;;;;;;6135993;29;20302;-81
2022/04/02 11:06:49;;;;;;;1.07;1.07;;;3.90;61.10;;;;;;6139866;29;20298;-82
2022/04/02 11:09:54;;;;;;;1.77;1.30;;;3.90;59.70;;;;;;6098504;29;20529;-82
2022/04/02 11:13:02;;;;;;;1.30;1.20;;;4.00;57.80;;;;;;6152877;28;20298;-83
2022/04/02 11:16:23;;;;;;;1.10;1.10;;;4.10;54.90;;;;;;6122932;28;20301;-82
2022/04/02 11:23:13;;;;;;;1.37;1.00;;;4.10;53.00;;;;;;6091761;28;20306;-82
2022/04/02 11:26:21;;;;;;;1.20;1.20;;;4.20;51.50;;;;;;6139496;28;20296;-82
2022/04/02 11:29:27;;;;;;;2.47;1.20;;;4.20;51.70;;;;;;6153787;28;20298;-81
2022/04/02 11:32:43;;;;;;;1.20;1.10;;;4.20;50.80;;;;;;6138975;28;20296;-80
2022/04/02 11:35:55;;;;;;;1.00;1.00;;;4.30;49.90;;;;;;6139610;28;20304;-81
2022/04/02 11:39:04;;;;;;;7.67;3.83;;;4.40;49.70;;;;;;6169548;28;20305;-81
2022/04/02 11:42:15;;;;;;;61.00;24.40;;;4.40;49.90;;;;;;6120710;28;20306;-81
2022/04/02 11:45:23;;;;;;;4.47;4.17;;;4.60;49.60;;;;;;6129572;29;20304;-81
2022/04/02 11:48:38;;;;;;;2.90;2.80;;;4.60;47.70;;;;;;6128328;28;20549;-80
2022/04/02 11:52:02;;;;;;;9.17;6.10;;;4.70;47.10;;;;;;6139055;28;20301;-83
2022/04/02 11:55:10;;;;;;;3.13;2.93;;;4.90;47.60;;;;;;6138706;28;20300;-83
2022/04/02 11:58:15;;;;;;;4.37;2.73;;;4.90;48.60;;;;;;6139074;28;20329;-83
2022/04/02 12:01:24;;;;;;;4.17;1.63;;;5.00;48.30;;;;;;6139174;28;20540;-83
2022/04/02 12:04:34;;;;;;;1.13;1.13;;;5.00;45.00;;;;;;6138333;28;20310;-83
2022/04/02 12:07:42;;;;;;;3.13;1.60;;;4.90;43.20;;;;;;6168053;28;20292;-83
2022/04/02 12:11:12;;;;;;;1.00;1.00;;;4.80;43.10;;;;;;6138480;28;20297;-82
2022/04/02 12:14:31;;;;;;;1.80;1.40;;;4.70;42.50;;;;;;6141722;28;20309;-83
2022/04/02 12:17:38;;;;;;;6.43;1.20;;;4.70;44.00;;;;;;6176260;28;20307;-82
2022/04/02 12:20:45;;;;;;;0.80;0.80;;;4.70;43.70;;;;;;6162387;28;20304;-82
2022/04/02 12:23:56;;;;;;;16.33;1.70;;;4.60;44.80;;;;;;6161135;28;20300;-82
2022/04/02 12:27:07;;;;;;;28.53;2.97;;;4.60;44.60;;;;;;6161967;28;20299;-82
2022/04/02 12:30:21;;;;;;;4.60;1.13;;;4.80;45.10;;;;;;6176571;28;20320;-82
2022/04/02 12:33:27;;;;;;;1.37;0.83;;;4.80;44.50;;;;;;6161556;28;20295;-82
2022/04/02 12:36:38;;;;;;;4.10;1.00;;;4.80;44.50;;;;;;6162292;28;20287;-82
2022/04/02 12:39:44;;;;;;;2.20;1.07;;;4.90;45.50;;;;;;6161490;28;20304;-82
2022/04/02 12:42:52;;;;;;;2.70;1.20;;;5.10;45.20;;;;;;6144938;28;20320;-87
2022/04/02 12:45:59;;;;;;;14.60;1.60;;;5.20;45.50;;;;;;6178746;28;20304;-90
2022/04/02 12:49:08;;;;;;;11.17;1.70;;;5.30;44.60;;;;;;6160839;28;20305;-81
2022/04/02 12:52:17;;;;;;;2.67;1.17;;;5.40;44.70;;;;;;6135356;28;20295;-82
2022/04/02 12:55:26;;;;;;;4.77;1.83;;;5.30;44.70;;;;;;6135884;28;20297;-81
2022/04/02 12:58:34;;;;;;;10.60;1.13;;;5.40;44.80;;;;;;6144073;28;20295;-81
2022/04/02 13:01:40;;;;;;;1.10;1.00;;;5.30;45.20;;;;;;6161656;28;20293;-81
2022/04/02 13:04:54;;;;;;;0.90;0.90;;;5.30;45.00;;;;;;6161412;28;20301;-82
2022/04/02 13:08:05;;;;;;;1.20;1.20;;;5.40;45.00;;;;;;6144151;28;20302;-81
2022/04/02 13:11:13;;;;;;;0.93;0.90;;;5.50;45.50;;;;;;6167885;28;20600;-82
2022/04/02 13:14:21;;;;;;;2.27;1.00;;;5.50;46.10;;;;;;6155548;28;20308;-80
2022/04/02 13:17:28;;;;;;;2.57;0.90;;;5.50;44.50;;;;;;6184801;28;20309;-80
2022/04/02 13:20:36;;;;;;;1.60;1.03;;;5.40;44.60;;;;;;6185575;28;20296;-81
2022/04/02 13:24:27;;;;;;;11.57;1.57;;;5.30;43.90;;;;;;6185015;28;20300;-81
2022/04/02 13:28:10;;;;;;;4.90;1.10;;;5.10;43.60;;;;;;6184267;28;20301;-82
2022/04/02 13:31:15;;;;;;;1.17;1.10;;;5.20;45.10;;;;;;6161647;28;20609;-82
2022/04/02 13:34:28;;;;;;;6.57;1.23;;;5.00;44.10;;;;;;6176831;28;20297;-89
2022/04/02 13:37:51;;;;;;;3.13;1.10;;;4.90;44.80;;;;;;6183052;28;20307;-87
2022/04/02 13:41:01;;;;;;;2.90;1.20;;;4.90;44.60;;;;;;6207458;28;20293;-87
2022/04/02 13:44:09;;;;;;;2.23;1.10;;;5.00;45.30;;;;;;6172112;28;20588;-85
2022/04/02 13:47:21;;;;;;;7.27;1.40;;;5.00;44.70;;;;;;6172381;28;20305;-85
2022/04/02 13:50:28;;;;;;;5.83;1.23;;;5.10;45.10;;;;;;6172531;28;20294;-84
2022/04/02 13:53:36;;;;;;;3.60;1.10;;;5.00;45.80;;;;;;6188753;28;20477;-85
2022/04/02 13:56:43;;;;;;;7.30;1.50;;;5.10;45.40;;;;;;6189734;28;20300;-90
2022/04/02 14:00:04;;;;;;;3.80;1.37;;;5.10;46.20;;;;;;6187809;28;20300;-85
2022/04/02 14:03:18;;;;;;;1.93;1.17;;;5.10;45.50;;;;;;6171503;28;20319;-83
2022/04/02 14:06:26;;;;;;;3.03;1.10;;;5.00;45.20;;;;;;6172372;28;20244;-89
2022/04/02 14:09:34;;;;;;;0.90;0.90;;;5.00;45.80;;;;;;6203774;28;20297;-88
2022/04/02 14:12:43;;;;;;;5.90;1.33;;;5.00;44.60;;;;;;6139345;29;20481;-86
2022/04/02 14:15:52;;;;;;;1.93;0.93;;;4.90;44.30;;;;;;6133232;29;20457;-81
2022/04/02 14:19:04;;;;;;;0.80;0.80;;;4.80;43.60;;;;;;6140171;28;20482;-82
2022/04/02 14:22:21;;;;;;;1.33;1.00;;;4.80;43.60;;;;;;6140311;29;20302;-82
2022/04/02 14:26:05;;;;;;;2.37;0.90;;;4.80;45.30;;;;;;6140834;29;20299;-82
2022/04/02 14:29:36;;;;;;;1.20;1.10;;;4.90;45.00;;;;;;6131372;29;20305;-80
2022/04/02 14:33:40;;;;;;;2.00;0.90;;;4.90;45.10;;;;;;6139837;29;20378;-84
2022/04/02 14:37:30;;;;;;;1.40;1.00;;;4.80;45.70;;;;;;6140359;29;20431;-85
2022/04/02 14:41:06;;;;;;;2.97;1.03;;;4.70;45.80;;;;;;6130760;29;20295;-85
2022/04/02 14:45:10;;;;;;;2.47;1.10;;;4.50;45.20;;;;;;6120576;29;20299;-83
2022/04/02 14:48:48;;;;;;;2.93;1.13;;;4.50;46.00;;;;;;6115679;29;20456;-81
2022/04/02 14:52:47;;;;;;;1.63;1.20;;;4.60;46.00;;;;;;6146457;29;20319;-90
2022/04/02 14:56:49;;;;;;;1.20;1.13;;;4.60;46.80;;;;;;6132118;29;20365;-87
2022/04/02 15:00:33;;;;;;;0.90;0.90;;;4.60;46.50;;;;;;6139437;29;20301;-89
2022/04/02 15:04:17;;;;;;;1.70;0.90;;;4.50;46.30;;;;;;6131568;29;20605;-82
2022/04/02 15:08:09;;;;;;;1.20;1.00;;;4.50;47.50;;;;;;6120128;29;20770;-82
2022/04/02 15:11:17;;;;;;;1.03;1.03;;;4.40;48.10;;;;;;6152236;28;20300;-84
2022/04/02 15:14:30;;;;;;;1.10;1.10;;;4.40;47.40;;;;;;6167926;28;20302;-79
2022/04/02 15:17:38;;;;;;;7.37;1.80;;;4.40;48.00;;;;;;6185601;28;20301;-85
2022/04/02 15:20:43;;;;;;;8.77;1.27;;;4.40;48.20;;;;;;6202086;28;20303;-83
2022/04/02 15:24:17;;;;;;;4.20;1.00;;;4.40;48.20;;;;;;6186533;28;20305;-87
2022/04/02 15:27:50;;;;;;;3.10;1.10;;;4.40;48.60;;;;;;6186941;28;20298;-88
2022/04/02 15:30:56;;;;;;;1.77;1.10;;;4.40;48.30;;;;;;6185421;28;20300;-88
2022/04/02 15:34:09;;;;;;;4.20;1.13;;;4.40;48.10;;;;;;6160981;28;20312;-90
2022/04/02 15:37:25;;;;;;;3.33;1.20;;;4.30;48.20;;;;;;6170313;28;20296;-90
2022/04/02 15:40:31;;;;;;;2.80;1.30;;;4.30;49.00;;;;;;6170164;28;20295;-90
2022/04/02 15:43:39;;;;;;;2.37;1.23;;;4.20;49.60;;;;;;6154131;28;20319;-87
2022/04/02 15:46:45;;;;;;;4.30;1.80;;;4.20;50.80;;;;;;6185727;28;20317;-88
2022/04/02 15:50:06;;;;;;;3.47;1.30;;;4.30;49.70;;;;;;6199646;28;20614;-87
2022/04/02 15:53:19;;;;;;;1.00;1.00;;;4.20;49.10;;;;;;6186205;28;20321;-82
2022/04/02 15:57:13;;;;;;;2.93;0.97;;;4.20;49.50;;;;;;6169154;28;20578;-82
2022/04/02 16:00:25;;;;;;;1.10;1.10;;;4.10;50.30;;;;;;6186018;28;20301;-85
2022/04/02 16:03:44;;;;;;;1.07;0.97;;;4.10;49.90;;;;;;6200925;28;20297;-83
2022/04/02 16:06:54;;;;;;;10.97;1.30;;;4.10;50.00;;;;;;6184789;28;20291;-84
2022/04/02 16:10:13;;;;;;;2.57;1.10;;;4.10;49.60;;;;;;6180611;28;20299;-83
2022/04/02 16:13:24;;;;;;;6.13;1.60;;;4.10;50.30;;;;;;6175156;28;20304;-79
2022/04/02 16:16:32;;;;;;;5.33;1.93;;;4.00;50.40;;;;;;6161215;28;20306;-85
2022/04/02 16:19:40;;;;;;;1.60;1.60;;;4.00;51.70;;;;;;6162069;28;20303;-81
2022/04/02 16:22:47;;;;;;;2.30;1.30;;;4.00;51.70;;;;;;6161964;28;20304;-82
2022/04/02 16:25:55;;;;;;;10.20;1.50;;;4.00;51.90;;;;;;6161827;28;20293;-82
2022/04/02 16:29:01;;;;;;;2.90;1.30;;;4.00;51.30;;;;;;6143704;29;20305;-84
2022/04/02 16:32:15;;;;;;;5.37;1.30;;;3.90;51.30;;;;;;6162005;28;20295;-84
2022/04/02 16:35:23;;;;;;;2.80;1.30;;;3.90;51.30;;;;;;6162414;28;20311;-87
2022/04/02 16:38:34;;;;;;;1.43;1.40;;;3.90;51.50;;;;;;6129834;29;20304;-76
2022/04/02 16:41:46;;;;;;;3.67;1.30;;;3.90;51.50;;;;;;6163073;28;20291;-88
2022/04/02 16:45:00;;;;;;;1.83;1.63;;;3.80;51.60;;;;;;6161962;28;20295;-85
2022/04/02 16:48:08;;;;;;;2.50;2.23;;;3.80;52.20;;;;;;6144399;28;20616;-85
2022/04/02 16:51:14;;;;;;;2.53;1.50;;;3.70;52.70;;;;;;6176509;28;20297;-82
2022/04/02 16:54:22;;;;;;;2.30;1.00;;;3.70;52.80;;;;;;6160924;28;20299;-85
2022/04/02 16:57:31;;;;;;;1.10;1.00;;;3.70;52.70;;;;;;6161621;28;20298;-81
2022/04/02 17:00:37;;;;;;;3.30;1.57;;;3.60;53.00;;;;;;6160668;28;20293;-81